Time,TemperatureF,DewpointF,PressureIn,WindDirection,WindDirectionDegrees,WindSpeedMPH,WindSpeedGustMPH,Humidity,HourlyPrecipIn,Conditions,Clouds,dailyrainin,SoftwareType,DateUTC
2013-07-26 00:01:00,68.5,64.0,30.01,ENE,74,0.0,0.0,86,0.00,,,0.00,weatherlink.com 1.10,2013-07-26 04:01:00,
2013-07-26 00:16:00,68.1,64.0,30.01,ENE,74,0.0,1.0,87,0.00,,,0.00,weatherlink.com 1.10,2013-07-26 04:16:00,
2013-07-26 00:31:00,67.6,64.0,30.01,ENE,73,0.0,0.0,87,0.00,,,0.00,weatherlink.com 1.10,2013-07-26 04:31:00,
2013-07-26 00:49:00,67.2,64.0,30.01,ENE,73,0.0,1.0,88,0.00,,,0.00,weatherlink.com 1.10,2013-07-26 04:49:00,
2013-07-26 01:01:00,66.7,64.0,30.01,ENE,73,0.0,0.0,90,0.00,,,0.00,weatherlink.com 1.10,2013-07-26 05:01:00,
2013-07-26 01:16:00,66.2,64.0,30.01,ENE,73,0.0,1.0,91,0.00,,,0.00,weatherlink.com 1.10,2013-07-26 05:16:00,
2013-07-26 01:31:00,65.9,63.0,30.01,ENE,74,0.0,0.0,91,0.00,,,0.00,weatherlink.com 1.10,2013-07-26 05:31:00,
2013-07-26 02:01:00,65.2,63.0,30.00,ENE,74,0.0,0.0,92,0.00,,,0.00,weatherlink.com 1.10,2013-07-26 06:01:00,
2013-07-26 02:46:00,64.5,62.0,30.00,ENE,74,0.0,0.0,92,0.00,,,0.00,weatherlink.com 1.10,2013-07-26 06:46:00,
2013-07-26 03:01:00,64.1,62.0,30.00,ENE,73,0.0,0.0,92,0.00,,,0.00,weatherlink.com 1.10,2013-07-26 07:01:00,
2013-07-26 03:16:00,63.9,62.0,30.00,ENE,74,0.0,0.0,93,0.00,,,0.00,weatherlink.com 1.10,2013-07-26 07:16:00,
2013-07-26 03:31:00,63.6,62.0,30.00,ENE,74,0.0,0.0,94,0.00,,,0.00,weatherlink.com 1.10,2013-07-26 07:31:00,
2013-07-26 03:46:00,63.3,62.0,30.00,ENE,73,0.0,0.0,94,0.00,,,0.00,weatherlink.com 1.10,2013-07-26 07:46:00,
2013-07-26 04:01:00,63.0,61.0,30.00,ENE,73,0.0,0.0,94,0.00,,,0.00,weatherlink.com 1.10,2013-07-26 08:01:00,
2013-07-26 04:16:00,62.8,61.0,30.00,ENE,74,0.0,0.0,95,0.00,,,0.00,weatherlink.com 1.10,2013-07-26 08:16:00,
2013-07-26 04:33:00,62.6,61.0,30.00,ENE,74,0.0,0.0,95,0.00,,,0.00,weatherlink.com 1.10,2013-07-26 08:33:00,
2013-07-26 05:16:00,62.0,61.0,30.00,ENE,73,0.0,0.0,96,0.00,,,0.00,weatherlink.com 1.10,2013-07-26 09:16:00,
2013-07-26 05:31:00,61.8,61.0,30.01,ENE,74,0.0,0.0,96,0.00,,,0.00,weatherlink.com 1.10,2013-07-26 09:31:00,
2013-07-26 05:46:00,61.6,61.0,30.01,ENE,73,0.0,0.0,97,0.00,,,0.00,weatherlink.com 1.10,2013-07-26 09:46:00,
2013-07-26 06:01:00,61.3,61.0,30.01,ENE,73,0.0,0.0,97,0.00,,,0.00,weatherlink.com 1.10,2013-07-26 10:01:00,
2013-07-26 06:16:00,61.1,60.0,30.02,ENE,74,0.0,0.0,97,0.00,,,0.00,weatherlink.com 1.10,2013-07-26 10:16:00,
2013-07-26 06:31:00,61.1,60.0,30.02,ENE,73,0.0,0.0,97,0.00,,,0.00,weatherlink.com 1.10,2013-07-26 10:31:00,
2013-07-26 06:47:00,61.0,60.0,30.03,ENE,74,0.0,0.0,97,0.00,,,0.00,weatherlink.com 1.10,2013-07-26 10:47:00,
2013-07-26 07:01:00,60.7,60.0,30.04,ENE,74,0.0,0.0,97,0.00,,,0.00,weatherlink.com 1.10,2013-07-26 11:01:00,
2013-07-26 07:16:00,60.8,60.0,30.04,ENE,73,0.0,0.0,98,0.00,,,0.00,weatherlink.com 1.10,2013-07-26 11:16:00,
2013-07-26 07:31:00,60.8,60.0,30.03,ENE,73,0.0,0.0,98,0.00,,,0.00,weatherlink.com 1.10,2013-07-26 11:31:00,
2013-07-26 07:47:00,61.4,61.0,30.03,ENE,73,0.0,0.0,98,0.00,,,0.00,weatherlink.com 1.10,2013-07-26 11:47:00,
2013-07-26 08:02:00,62.2,62.0,30.03,ENE,73,0.0,0.0,98,0.00,,,0.00,weatherlink.com 1.10,2013-07-26 12:02:00,
2013-07-26 08:17:00,63.1,63.0,30.03,ENE,73,0.0,0.0,98,0.00,,,0.00,weatherlink.com 1.10,2013-07-26 12:17:00,
2013-07-26 08:32:00,64.2,64.0,30.04,ENE,74,0.0,0.0,98,0.00,,,0.00,weatherlink.com 1.10,2013-07-26 12:32:00,
2013-07-26 08:47:00,65.6,65.0,30.04,ENE,74,0.0,0.0,96,0.00,,,0.00,weatherlink.com 1.10,2013-07-26 12:47:00,
2013-07-26 09:02:00,66.8,65.0,30.06,ENE,74,0.0,0.0,95,0.00,,,0.00,weatherlink.com 1.10,2013-07-26 13:02:00,
2013-07-26 09:17:00,67.9,65.0,30.05,ENE,73,0.0,0.0,89,0.00,,,0.00,weatherlink.com 1.10,2013-07-26 13:17:00,
2013-07-26 09:32:00,68.8,65.0,30.06,NE,37,0.0,0.0,86,0.00,,,0.00,weatherlink.com 1.10,2013-07-26 13:32:00,
2013-07-26 09:47:00,69.8,65.0,30.06,NNE,32,0.0,0.0,84,0.00,,,0.00,weatherlink.com 1.10,2013-07-26 13:47:00,
2013-07-26 10:02:00,72.8,66.0,30.06,SE,140,0.0,0.0,79,0.00,,,0.00,weatherlink.com 1.10,2013-07-26 14:02:00,
2013-07-26 10:17:00,73.0,66.0,30.05,NNW,343,0.0,0.0,78,0.00,,,0.00,weatherlink.com 1.10,2013-07-26 14:17:00,
2013-07-26 10:32:00,73.5,66.0,30.05,North,4,0.0,2.0,78,0.00,,,0.00,weatherlink.com 1.10,2013-07-26 14:32:00,
2013-07-26 10:47:00,73.5,66.0,30.05,NW,326,0.0,2.0,78,0.00,,,0.00,weatherlink.com 1.10,2013-07-26 14:47:00,
2013-07-26 11:02:00,73.9,67.0,30.05,NNE,27,0.0,2.0,79,0.00,,,0.00,weatherlink.com 1.10,2013-07-26 15:02:00,
2013-07-26 11:17:00,75.3,67.0,30.05,NNW,341,0.0,1.0,75,0.00,,,0.00,weatherlink.com 1.10,2013-07-26 15:17:00,
2013-07-26 11:32:00,76.0,68.0,30.05,NE,54,0.0,1.0,76,0.00,,,0.00,weatherlink.com 1.10,2013-07-26 15:32:00,
2013-07-26 11:47:00,76.1,68.0,30.04,NNE,22,0.0,3.0,76,0.00,,,0.00,weatherlink.com 1.10,2013-07-26 15:47:00,
2013-07-26 12:02:00,77.4,69.0,30.04,NNE,30,0.0,1.0,74,0.00,,,0.00,weatherlink.com 1.10,2013-07-26 16:02:00,
2013-07-26 12:17:00,78.1,69.0,30.04,ESE,117,0.0,1.0,73,0.00,,,0.00,weatherlink.com 1.10,2013-07-26 16:17:00,
2013-07-26 12:32:00,78.1,69.0,30.04,ESE,111,0.0,2.0,74,0.00,,,0.00,weatherlink.com 1.10,2013-07-26 16:32:00,
2013-07-26 12:47:00,78.5,70.0,30.04,ESE,102,0.0,1.0,76,0.00,,,0.00,weatherlink.com 1.10,2013-07-26 16:47:00,
2013-07-26 13:02:00,80.2,72.0,30.03,ENE,70,0.0,4.0,76,0.00,,,0.00,weatherlink.com 1.10,2013-07-26 17:02:00,
2013-07-26 13:17:00,82.2,73.0,30.02,ESE,111,1.0,4.0,73,0.00,,,0.00,weatherlink.com 1.10,2013-07-26 17:17:00,
2013-07-26 13:32:00,84.1,74.0,30.02,WNW,299,0.0,1.0,71,0.00,,,0.00,weatherlink.com 1.10,2013-07-26 17:32:00,
2013-07-26 13:47:00,84.1,72.0,30.02,West,263,1.0,1.0,67,0.00,,,0.00,weatherlink.com 1.10,2013-07-26 17:47:00,
2013-07-26 14:02:00,85.1,72.0,30.02,South,177,0.0,2.0,64,0.00,,,0.00,weatherlink.com 1.10,2013-07-26 18:02:00,
2013-07-26 14:18:00,85.4,72.0,30.01,NW,315,0.0,2.0,65,0.00,,,0.00,weatherlink.com 1.10,2013-07-26 18:18:00,
2013-07-26 14:33:00,84.9,73.0,30.00,NW,323,0.0,2.0,67,0.00,,,0.00,weatherlink.com 1.10,2013-07-26 18:33:00,
2013-07-26 14:48:00,85.7,73.0,30.00,East,101,0.0,2.0,66,0.00,,,0.00,weatherlink.com 1.10,2013-07-26 18:48:00,
2013-07-26 15:03:00,87.0,73.0,29.99,ENE,77,0.0,2.0,64,0.00,,,0.00,weatherlink.com 1.10,2013-07-26 19:03:00,
2013-07-26 15:18:00,87.5,72.0,29.98,WSW,252,0.0,2.0,60,0.00,,,0.00,weatherlink.com 1.10,2013-07-26 19:18:00,
2013-07-26 15:35:00,86.8,72.0,29.97,ENE,75,0.0,2.0,61,0.00,,,0.00,weatherlink.com 1.10,2013-07-26 19:35:00,
2013-07-26 15:48:00,88.2,71.0,29.97,NW,323,0.0,1.0,57,0.00,,,0.00,weatherlink.com 1.10,2013-07-26 19:48:00,
2013-07-26 16:03:00,88.0,71.0,29.97,East,86,1.0,2.0,58,0.00,,,0.00,weatherlink.com 1.10,2013-07-26 20:03:00,
2013-07-26 16:18:00,88.4,71.0,29.97,ESE,108,0.0,2.0,57,0.00,,,0.00,weatherlink.com 1.10,2013-07-26 20:18:00,
2013-07-26 16:33:00,87.8,70.0,29.96,SSE,165,0.0,2.0,56,0.00,,,0.00,weatherlink.com 1.10,2013-07-26 20:33:00,
2013-07-26 16:48:00,89.1,69.0,29.96,South,186,0.0,2.0,52,0.00,,,0.00,weatherlink.com 1.10,2013-07-26 20:48:00,
2013-07-26 17:03:00,88.7,70.0,29.96,East,93,0.0,3.0,54,0.00,,,0.00,weatherlink.com 1.10,2013-07-26 21:03:00,
2013-07-26 17:18:00,88.2,69.0,29.96,ESE,118,1.0,3.0,54,0.00,,,0.00,weatherlink.com 1.10,2013-07-26 21:18:00,
2013-07-26 17:33:00,88.6,69.0,29.95,ESE,108,0.0,2.0,53,0.00,,,0.00,weatherlink.com 1.10,2013-07-26 21:33:00,
2013-07-26 17:48:00,88.0,70.0,29.95,SE,126,0.0,1.0,56,0.00,,,0.00,weatherlink.com 1.10,2013-07-26 21:48:00,
2013-07-26 18:03:00,86.6,72.0,29.95,East,94,1.0,2.0,63,0.00,,,0.00,weatherlink.com 1.10,2013-07-26 22:03:00,
2013-07-26 18:18:00,85.9,72.0,29.95,ESE,105,1.0,1.0,64,0.00,,,0.00,weatherlink.com 1.10,2013-07-26 22:18:00,
2013-07-26 18:33:00,84.7,70.0,29.95,ESE,106,0.0,3.0,62,0.00,,,0.00,weatherlink.com 1.10,2013-07-26 22:33:00,
2013-07-26 18:48:00,83.6,71.0,29.95,NNE,15,0.0,2.0,65,0.00,,,0.00,weatherlink.com 1.10,2013-07-26 22:48:00,
2013-07-26 19:03:00,82.6,71.0,29.95,ESE,114,0.0,2.0,67,0.00,,,0.00,weatherlink.com 1.10,2013-07-26 23:03:00,
2013-07-26 19:20:00,81.8,71.0,29.95,ESE,109,0.0,1.0,69,0.00,,,0.00,weatherlink.com 1.10,2013-07-26 23:20:00,
2013-07-26 19:33:00,81.3,72.0,29.95,ESE,110,0.0,1.0,73,0.00,,,0.00,weatherlink.com 1.10,2013-07-26 23:33:00,
2013-07-26 19:48:00,80.5,72.0,29.95,ESE,113,0.0,0.0,76,0.00,,,0.00,weatherlink.com 1.10,2013-07-26 23:48:00,
2013-07-26 20:03:00,79.4,72.0,29.95,ESE,113,0.0,0.0,77,0.00,,,0.00,weatherlink.com 1.10,2013-07-27 00:03:00,
2013-07-26 20:18:00,78.1,72.0,29.96,ESE,113,0.0,0.0,81,0.00,,,0.00,weatherlink.com 1.10,2013-07-27 00:18:00,
2013-07-26 20:33:00,76.8,71.0,29.96,East,82,0.0,0.0,83,0.00,,,0.00,weatherlink.com 1.10,2013-07-27 00:33:00,
2013-07-26 20:48:00,75.7,71.0,29.96,East,82,0.0,0.0,86,0.00,,,0.00,weatherlink.com 1.10,2013-07-27 00:48:00,
2013-07-26 21:03:00,74.8,71.0,29.97,East,82,0.0,0.0,87,0.00,,,0.00,weatherlink.com 1.10,2013-07-27 01:03:00,
2013-07-26 21:18:00,73.8,70.0,29.97,East,82,0.0,0.0,88,0.00,,,0.00,weatherlink.com 1.10,2013-07-27 01:18:00,
2013-07-26 21:33:00,73.3,70.0,29.97,NNE,19,0.0,0.0,89,0.00,,,0.00,weatherlink.com 1.10,2013-07-27 01:33:00,
2013-07-26 21:48:00,72.8,69.0,29.97,NE,44,0.0,0.0,88,0.00,,,0.00,weatherlink.com 1.10,2013-07-27 01:48:00,
2013-07-26 22:03:00,72.3,69.0,29.97,NE,45,0.0,0.0,89,0.00,,,0.00,weatherlink.com 1.10,2013-07-27 02:03:00,
2013-07-26 22:18:00,71.7,68.0,29.97,NE,44,0.0,0.0,89,0.00,,,0.00,weatherlink.com 1.10,2013-07-27 02:18:00,
2013-07-26 22:33:00,71.2,68.0,29.98,NE,45,0.0,0.0,89,0.00,,,0.00,weatherlink.com 1.10,2013-07-27 02:33:00,
2013-07-26 22:48:00,71.0,68.0,29.97,NE,45,0.0,0.0,90,0.00,,,0.00,weatherlink.com 1.10,2013-07-27 02:48:00,
2013-07-26 23:04:00,70.7,68.0,29.98,NE,45,0.0,0.0,91,0.00,,,0.00,weatherlink.com 1.10,2013-07-27 03:04:00,
2013-07-26 23:18:00,70.8,68.0,29.98,NE,46,0.0,0.0,90,0.00,,,0.00,weatherlink.com 1.10,2013-07-27 03:18:00,
2013-07-26 23:33:00,70.3,67.0,29.98,NE,46,0.0,0.0,90,0.00,,,0.00,weatherlink.com 1.10,2013-07-27 03:33:00,
2013-07-26 23:48:00,70.1,67.0,29.98,NE,46,0.0,0.0,91,0.00,,,0.00,weatherlink.com 1.10,2013-07-27 03:48:00,